createdAt,value
2022-10-28T00:10:21.293Z,11.97
2022-10-28T00:22:21.487Z,11.96
2022-10-28T00:34:21.418Z,11.95
2022-10-28T00:46:21.415Z,11.94
2022-10-28T00:58:21.571Z,11.93
2022-10-28T01:10:21.470Z,11.92
2022-10-28T01:22:21.286Z,11.91
2022-10-28T01:34:21.189Z,11.90
2022-10-28T01:46:21.184Z,11.88
2022-10-28T01:58:21.192Z,11.87
2022-10-28T02:10:21.268Z,11.86
2022-10-28T02:22:21.185Z,11.85
2022-10-28T02:34:21.192Z,11.85
2022-10-28T02:46:21.184Z,11.83
2022-10-28T02:58:21.259Z,11.82
2022-10-28T03:10:23.312Z,11.80
2022-10-28T03:22:21.186Z,11.80
2022-10-28T03:34:21.187Z,11.78
2022-10-28T03:46:21.179Z,11.78
2022-10-28T03:58:21.180Z,11.77
2022-10-28T04:10:21.275Z,11.76
2022-10-28T04:22:21.181Z,11.74
2022-10-28T04:34:21.194Z,11.74
2022-10-28T04:46:21.183Z,11.73
2022-10-28T04:58:21.182Z,11.71
2022-10-28T05:10:21.182Z,11.71
2022-10-28T05:22:21.191Z,11.69
2022-10-28T05:34:21.272Z,11.69
2022-10-28T05:46:21.182Z,11.67
2022-10-28T05:58:29.691Z,11.66
2022-10-28T06:10:21.178Z,11.65
2022-10-28T06:22:19.711Z,11.64
2022-10-28T06:34:19.676Z,11.63
2022-10-28T06:46:19.683Z,11.61
2022-10-28T06:58:21.219Z,11.61
2022-10-28T07:10:21.216Z,11.61
2022-10-28T07:22:25.325Z,11.59
2022-10-28T07:34:25.982Z,11.59
2022-10-28T07:46:21.234Z,11.57
2022-10-28T07:58:21.222Z,11.57
2022-10-28T08:10:21.205Z,11.57
2022-10-28T08:22:21.189Z,11.56
2022-10-28T08:46:21.184Z,11.58
2022-10-28T08:58:21.192Z,11.60
2022-10-28T09:10:21.202Z,11.79
2022-10-28T09:22:21.255Z,11.98
2022-10-28T09:34:21.190Z,12.08
2022-10-28T09:46:21.214Z,12.23
2022-10-28T09:58:21.195Z,12.30
2022-10-28T10:10:21.194Z,12.40
2022-10-28T10:22:21.267Z,12.58
2022-10-28T10:34:21.376Z,12.59
2022-10-28T10:46:21.413Z,12.78
2022-10-28T10:58:21.416Z,12.71
2022-10-28T11:10:21.475Z,12.78
2022-10-28T11:22:21.306Z,12.79
2022-10-28T11:34:21.227Z,12.78
2022-10-28T11:46:21.222Z,12.77
2022-10-28T11:58:21.216Z,12.74
2022-10-28T12:10:21.207Z,12.74
2022-10-28T12:22:21.206Z,12.75
2022-10-28T12:34:21.211Z,12.75
2022-10-28T12:46:21.216Z,12.74
2022-10-28T12:58:21.210Z,12.71
2022-10-28T13:10:24.072Z,12.69
2022-10-28T13:22:21.268Z,12.66
2022-10-28T13:34:21.196Z,12.64
2022-10-28T13:46:21.195Z,12.62
2022-10-28T13:58:21.196Z,12.59
2022-10-28T14:10:21.308Z,12.58
2022-10-28T14:22:21.246Z,12.57
2022-10-28T14:34:21.192Z,12.56
2022-10-28T14:46:21.184Z,12.55
2022-10-28T14:58:21.195Z,12.53
2022-10-28T15:10:21.178Z,12.53
2022-10-28T15:22:21.193Z,12.51
2022-10-28T15:34:21.200Z,12.50
2022-10-28T15:46:21.190Z,12.49
2022-10-28T15:58:21.223Z,12.47
2022-10-28T16:10:21.188Z,12.46
2022-10-28T16:22:21.292Z,12.45
2022-10-28T16:34:21.203Z,12.43
2022-10-28T16:46:21.306Z,12.43
2022-10-28T16:58:24.617Z,12.41
2022-10-28T17:10:21.185Z,12.39
2022-10-28T17:22:21.196Z,12.38
2022-10-28T17:34:21.195Z,12.36
2022-10-28T17:46:21.191Z,12.36
2022-10-28T17:58:23.897Z,12.33
2022-10-28T18:10:21.189Z,12.33
2022-10-28T18:22:21.304Z,12.32
2022-10-28T18:34:21.297Z,12.31
2022-10-28T18:46:21.188Z,12.30
2022-10-28T18:58:21.231Z,12.28
2022-10-28T19:10:21.184Z,12.27
2022-10-28T19:22:21.239Z,12.26
2022-10-28T19:34:21.203Z,12.24
2022-10-28T19:46:21.184Z,12.24
2022-10-28T19:58:21.180Z,12.23
2022-10-28T20:10:21.191Z,12.21
2022-10-28T20:22:21.186Z,12.20
2022-10-28T20:34:21.196Z,12.19
2022-10-28T20:46:21.190Z,12.18
2022-10-28T20:58:21.182Z,12.16
2022-10-28T21:10:21.267Z,12.15
2022-10-28T21:22:21.185Z,12.14
2022-10-28T21:34:21.191Z,12.13
2022-10-28T21:46:21.185Z,12.11
2022-10-28T21:58:21.198Z,12.11
2022-10-28T22:10:21.190Z,12.09
2022-10-28T22:22:21.192Z,12.09
2022-10-28T22:34:21.197Z,12.07
2022-10-28T22:46:21.563Z,12.06
2022-10-28T22:58:21.222Z,12.05
2022-10-28T23:10:21.198Z,12.04
2022-10-28T23:22:21.183Z,12.03
2022-10-28T23:34:21.188Z,12.01
2022-10-28T23:46:21.184Z,12.01
2022-10-28T23:58:21.191Z,11.99
